Mead, West Virginia
Current Conditions -  °F | °C
As of 10:51 AM on Sunday 21 Dec 2014 (Local Time) from KBKW Reporting Station
Clear Clear  
Wind Chill: 36°   Ceiling: Unl
Heat Index: 36°   Visibility: 10mi
Dew Point: 26°   Wind: 3mph
Humidity: 67%   Direction: 180°S
Pressure: 30.23"   Gusts: NA
Location:  37.6245°N, 81.2855°W
Report Text: KBKW 211551Z AUTO 18003KT 10SM CLR 02/M03 A3023 RMK AO2 SLP261 T00221033
Loading
Personal Weather Stations






























Interactive Weather Map New forecast layout! Learn more

10-Day Weather Forecast

Advertisements
Track Severe Weather on mobile